岡山グライダークラブ活動状況掲示板あなたは無料カウンター人目の訪問者です

岡山グライダークラブ
岡山市浦安南町639-1 岡南飛行場
 使用機:シャイベ式 SF25C型 ファルケ   JA2330
      ヴァレンティン式17E型 タイフーン  JA2342
 練習日:毎日曜日  クラブルーム:電話 086-265-1810
この掲示板は岡山グライダークラブの活動状況をお知らせする掲示板です。
!!!この掲示板は投稿規制をしています。!!!
クラブ関連各種情報は 岡山グライダークラブクラブルーム      を       .
  ブリーフイング情報は  岡山グライダークラブブリーフィングルーム  をご覧下さい。 .
※写真はクリックすると拡大して見ることが出来ます。
岡南飛行場へのアクセス等は 岡南飛行場管理事務所 をご覧ください。
クラブの ホームページ ができました。

 
03月01日
by OGC at 2020/3/1(日) 20:45:51 No.20200301204326  削除コメント
1024 x 768 x 75,764バイト
No.1

03月01日
本日の参加者
  会員      13名
  その他      0名


@本日の様子


METAR
RJBK 010000Z VRB02KT 30KM BCFG FEW005ST SCT040CU BKN/// 06/06 Q1019 A3010 RMK/4500SE
RJOB 010000Z 04011KT 9999 PRFG FEW000 BKN/// 09/05 Q1018
RJOT 010000Z 09003KT 050V120 5000 BR FEW002 BKN/// 08/08 Q1018
RJOA 010000Z 06007KT 9999 FEW001 BKN/// 07/05 Q1018
TAF
RJOB 292305Z 0100/0206 13005KT 9999 FEW025
     BECMG 0121/0200 27010KT
RJOT 292309Z 0100/0206 06010KT 9999 FEW020
     BECMG 0108/0110 15005KT
     BECMG 0121/0200 27012KT
RJOA  292305Z 0100/0206 12008KT 9999 FEW020
     BECMG 0115/0118 32004KT
     BECMG 0200/0203 29014KT

本日は、霧がすごく飛べるかどうか心配していましたが、離陸するころにはすっかりなくなり、いつも通り、訓練フライトを行いました。
また、本日特定技能審査を実施し1名合格しました。

解散    18:10

1番機  10:25離陸 撤収機  17:40着陸 

SF25C JA2330 ファルケ     12Flt.4h20min  
17E   JA2342 タイフーン    00Flt.0h00min  
合計                    12Flt.4h20min

    << 戻る || ホームページ || 最新の掲示板へ